Annandale, Virginia
Current Conditions -  °F | °C
As of 1:13 AM on Tuesday 21 Oct 2014 (Local Time) from KDAA Reporting Station
Broken Clouds Broken Clouds  
Wind Chill: 12°   Ceiling: 10000
Heat Index: 12°   Visibility: 10mi
Dew Point: 11°   Wind: 0mph
Humidity: 94%   Direction: NA
Pressure: 29.92"   Gusts: NA
Location:  38.83°N, 77.19°W
Report Text: KDAA 210513Z AUTO 00000KT 10SM SCT080 BKN100 12/11 A2992 RMK AO2 RAB0504E0513
Loading
Personal Weather Stations






























Interactive Weather Map
Tropical Storm Tracking
New forecast layout! Learn more

10-Day Weather Forecast

Advertisements
Track Severe Weather on mobile